Current Weather

Albertus

Freeport, Illinois (KFEP)

Report from: Tuesday, June 6, 2023 3:15 PM CDT
Current time: Tuesday, June 6, 2023 3:44 PM CDT

Nearby weather
Weather history
Weather forecast

Present weatherLight rain
Temperature19.0°C (66.2°F)
Dew point18.8°C (65.8°F)
Winds Calm
Visibility2.5 mi. (4 km)
Clouds Scattered clouds 3,100 ft. (945 m)
Ceiling: Broken clouds 4,700 ft. (1,433 m)
Overcast 7,000 ft. (2,134 m)
Altimeter29.97 in.Hg (1015 mB)
Precipitiation0.05 in. (1 mm)
Relative humidity99 %
Density altitude708 ft. (216 m)
Remarks Fully automated report
Automated weather observing station with precipitation discriminator
Flight conditions Instrument Meteorological Conditions
Raw dataKFEP 062015Z AUTO 00000KT 2 1/2SM -RA SCT031 BKN047 OVC070 19/19 A2997 RMK AO2 P0005 T01900188
An error has occurred. This application may no longer respond until reloaded. Reload 🗙